SBPG/PNG METAR and TAF weather

Enter ICAO airport designator
Station Type Date Time Source
SBPG METAR 2019/02/15 16:00 UTC NOAA

SBPG 151600Z 12008KT 3000 RA BR BKN005 OVC035 17/16 Q1011


Station Type Date Time Source
SBPG Decoded METAR 2019/02/15 16:00 UTC NOAA

Paranagua, Brazil (SBPG) 25-31S 048-31W
Feb 15, 2019 - 11:00 AM EST / 2019.02.15 1600 UTC
Wind: from the ESE (120 degrees) at 9 MPH (8 KT):0
Visibility: 1 mile(s):0
Sky conditions: overcast
Weather: rain; mist
Temperature: 62 F (17 C)
Dew Point: 60 F (16 C)
Relative Humidity: 93%
Pressure (altimeter): 29.85 in. Hg (1011 hPa)
ob: SBPG 151600Z 12008KT 3000 RA BR BKN005 OVC035 17/16 Q1011
cycle: 16

Station Type Date Time Source
SBPG TAF UTC NOAA

Error!


Example: see airport list